createdAt,value
2022-09-15T00:01:55.013Z,7.40
2022-09-15T00:04:21.517Z,6.85
2022-09-15T00:06:47.978Z,7.43
2022-09-15T00:09:14.390Z,7.80
2022-09-15T00:11:40.890Z,7.20
2022-09-15T00:14:08.501Z,6.28
2022-09-15T00:16:35.213Z,7.07
2022-09-15T00:19:02.740Z,6.32
2022-09-15T00:21:32.439Z,6.78
2022-09-15T00:24:00.089Z,6.80
2022-09-15T00:26:28.596Z,6.20
2022-09-15T00:28:57.038Z,6.45
2022-09-15T00:31:25.607Z,6.13
2022-09-15T00:33:54.874Z,7.18
2022-09-15T00:36:22.869Z,6.55
2022-09-15T00:38:49.445Z,6.22
2022-09-15T00:41:18.721Z,6.60
2022-09-15T00:43:53.558Z,6.80
2022-09-15T00:46:23.569Z,6.60
2022-09-15T00:48:59.327Z,6.60
2022-09-15T00:51:32.806Z,6.72
2022-09-15T00:54:01.657Z,6.40
2022-09-15T00:56:29.836Z,6.85
2022-09-15T00:59:01.948Z,6.65
2022-09-15T01:01:31.160Z,6.18
2022-09-15T01:03:58.396Z,6.13
2022-09-15T01:06:41.155Z,7.22
2022-09-15T01:09:13.977Z,6.40
2022-09-15T01:11:41.153Z,5.95
2022-09-15T01:14:07.942Z,6.10
2022-09-15T01:16:59.291Z,6.68
2022-09-15T01:19:43.714Z,5.97
2022-09-15T01:22:31.764Z,6.18
2022-09-15T01:25:09.064Z,6.50
2022-09-15T01:28:07.123Z,6.50
2022-09-15T01:30:56.535Z,6.10
2022-09-15T01:33:37.124Z,7.00
2022-09-15T01:36:37.666Z,6.93
2022-09-15T01:39:14.118Z,6.78
2022-09-15T01:41:45.207Z,6.40
2022-09-15T01:44:22.069Z,7.68
2022-09-15T01:46:54.698Z,6.45
2022-09-15T01:49:27.906Z,6.90
2022-09-15T01:51:54.860Z,6.35
2022-09-15T01:54:29.871Z,6.22
2022-09-15T01:56:57.571Z,6.93
2022-09-15T01:59:24.419Z,7.10
2022-09-15T02:02:13.732Z,6.07
2022-09-15T02:04:48.203Z,6.43
2022-09-15T02:07:20.694Z,8.77
2022-09-15T02:09:53.587Z,7.50
2022-09-15T02:12:33.453Z,6.50
2022-09-15T02:15:05.283Z,6.63
2022-09-15T02:17:36.014Z,7.88
2022-09-15T02:20:13.552Z,7.22
2022-09-15T02:22:43.164Z,7.47
2022-09-15T02:25:20.115Z,7.38
2022-09-15T02:27:51.129Z,7.18
2022-09-15T02:30:19.181Z,7.40
2022-09-15T02:33:00.139Z,8.00
2022-09-15T02:35:29.137Z,7.97
2022-09-15T02:37:56.459Z,7.97
2022-09-15T02:40:23.158Z,8.82
2022-09-15T02:42:55.000Z,8.90
2022-09-15T02:45:22.134Z,8.10
2022-09-15T02:47:48.709Z,8.07
2022-09-15T02:50:15.230Z,8.07
2022-09-15T02:52:41.695Z,8.07
2022-09-15T02:55:08.884Z,8.27
2022-09-15T02:57:35.423Z,9.27
2022-09-15T03:00:03.301Z,8.18
2022-09-15T03:02:29.857Z,8.32
2022-09-15T03:04:56.364Z,9.07
2022-09-15T03:07:22.818Z,9.57
2022-09-15T03:09:49.326Z,8.05
2022-09-15T03:12:15.772Z,8.73
2022-09-15T03:14:42.218Z,8.02
2022-09-15T03:17:08.669Z,7.68
2022-09-15T03:19:35.300Z,7.60
2022-09-15T03:22:01.730Z,7.03
2022-09-15T03:24:28.247Z,7.80
2022-09-15T03:26:54.693Z,7.28
2022-09-15T03:29:21.140Z,7.43
2022-09-15T03:31:47.721Z,7.85
2022-09-15T03:34:14.167Z,8.25
2022-09-15T03:36:40.629Z,8.05
2022-09-15T03:39:07.097Z,7.60
2022-09-15T03:41:33.589Z,7.18
2022-09-15T03:44:00.024Z,7.53
2022-09-15T03:46:26.504Z,7.97
2022-09-15T03:48:52.979Z,7.60
2022-09-15T03:51:19.444Z,7.82
2022-09-15T03:53:46.260Z,7.07
2022-09-15T03:56:25.694Z,7.57
2022-09-15T03:58:53.035Z,7.07
2022-09-15T04:01:20.568Z,7.22
2022-09-15T04:03:50.892Z,7.07
2022-09-15T04:06:19.560Z,7.57
2022-09-15T04:08:46.368Z,6.70
2022-09-15T04:11:13.440Z,7.18
2022-09-15T04:13:40.989Z,6.28
2022-09-15T04:16:19.015Z,6.68
2022-09-15T04:18:46.025Z,7.32
2022-09-15T04:21:14.902Z,6.10
2022-09-15T04:23:42.976Z,6.43
2022-09-15T04:26:24.966Z,6.90
2022-09-15T04:28:51.510Z,6.55
2022-09-15T04:31:18.597Z,6.50
2022-09-15T04:33:46.321Z,6.35
2022-09-15T04:36:18.783Z,5.68
2022-09-15T04:38:45.833Z,5.80
2022-09-15T04:41:13.573Z,6.22
2022-09-15T04:43:41.009Z,5.57
2022-09-15T04:46:07.509Z,5.32
2022-09-15T04:48:34.327Z,5.32
2022-09-15T04:51:02.822Z,5.43
2022-09-15T04:53:29.656Z,5.25
2022-09-15T04:56:14.079Z,5.10
2022-09-15T04:58:43.439Z,5.10
2022-09-15T05:01:16.169Z,4.47
2022-09-15T05:03:43.342Z,4.75
2022-09-15T05:06:12.572Z,5.35
2022-09-15T05:08:39.396Z,5.43
2022-09-15T05:11:11.438Z,5.97
2022-09-15T05:13:38.880Z,5.15
2022-09-15T05:16:14.229Z,4.93
2022-09-15T05:18:42.810Z,4.80
2022-09-15T05:21:11.131Z,5.13
2022-09-15T05:23:38.103Z,4.57
2022-09-15T05:26:11.396Z,5.13
2022-09-15T05:28:38.718Z,4.78
2022-09-15T05:31:20.221Z,5.10
2022-09-15T05:36:14.380Z,4.82
2022-09-15T05:38:41.296Z,4.85
2022-09-15T05:41:12.648Z,4.95
2022-09-15T05:43:40.850Z,4.10
2022-09-15T05:46:07.848Z,4.68
2022-09-15T05:48:34.832Z,4.45
2022-09-15T05:51:01.409Z,4.22
2022-09-15T05:53:28.233Z,4.45
2022-09-15T05:55:59.135Z,4.07
2022-09-15T05:58:26.729Z,4.38
2022-09-15T06:00:54.506Z,4.05
2022-09-15T06:03:22.013Z,4.40
2022-09-15T06:05:48.615Z,4.05
2022-09-15T06:08:15.503Z,4.57
2022-09-15T06:10:44.422Z,4.20
2022-09-15T06:13:10.868Z,4.07
2022-09-15T06:15:37.328Z,5.20
2022-09-15T06:18:03.849Z,4.68
2022-09-15T06:20:30.330Z,4.80
2022-09-15T06:22:56.733Z,4.03
2022-09-15T06:25:23.166Z,4.43
2022-09-15T06:27:49.963Z,4.13
2022-09-15T06:30:16.710Z,4.20
2022-09-15T06:32:47.384Z,4.40
